Time;durP1;ratioP1;P1;durP2;ratioP2;P2;SDS_P1;SDS_P2;PMS_P1;PMS_P2;Temp;Humidity;BMP_temperature;BMP_pressure;BME280_temperature;BME280_humidity;BME280_pressure;Samples;Min_cycle;Max_cycle;Signal;HPM_P1;HPM_P2
2021/05/23 00:31:19;;;;;;;;;;;;;;;13.24;52.56;99440.88;3805885;23;19923;31
2021/05/23 00:35:09;;;;;;;;;;;;;;;13.22;52.59;99442.94;2209288;40;19942;-82
2021/05/23 00:39:07;;;;;;;;;;;;;;;13.26;52.69;99436.16;2189760;40;19935;-83
2021/05/23 01:55:50;;;;;;;;;;;;;;;12.55;58.94;99511.25;3808428;23;20704;31
2021/05/23 02:04:48;;;;;;;;;;;;;;;12.50;58.66;99508.22;2215996;40;20511;-85
2021/05/23 02:06:21;;;;;;;;;;;;;;;12.46;58.38;99512.28;2187186;40;19949;-82
2021/05/23 02:07:52;;;;;;;;;;;;;;;12.47;58.21;99514.78;2203202;40;19938;-83
2021/05/23 02:09:25;;;;;;;;;;;;;;;12.45;58.31;99510.59;2206281;40;19937;-82
2021/05/23 02:11:05;;;;;;;;;;;;;;;12.46;58.20;99512.28;2216383;40;19941;-81
2021/05/23 02:12:57;;;;;;;;;;;;;;;12.45;58.25;99513.28;2216914;40;20302;-82
2021/05/23 02:14:29;;;;;;;;;;;;;;;12.46;57.92;99512.28;2185741;40;19957;-82
2021/05/23 02:16:01;;;;;;;;;;;;;;;12.43;57.74;99507.25;2194012;40;19934;-83
2021/05/23 02:17:34;;;;;;;;;;;;;;;12.45;57.72;99511.41;2207376;40;19942;-82
2021/05/23 02:19:11;;;;;;;;;;;;;;;12.46;57.74;99514.97;2210055;40;19946;-82
2021/05/23 02:20:42;;;;;;;;;;;;;;;12.47;57.73;99513.91;2209961;40;19953;-82
2021/05/23 02:22:19;;;;;;;;;;;;;;;12.43;57.60;99513.44;2208525;40;19945;-83
2021/05/23 02:23:59;;;;;;;;;;;;;;;12.40;57.59;99521.84;2200512;40;19978;-82
2021/05/23 02:27:39;;;;;;;;;;;;;;;12.40;57.51;99529.03;2162892;40;19939;-81
2021/05/23 02:43:06;;;;;;;;;;;;;;;12.26;58.12;99519.81;2206189;40;19986;-83
2021/05/23 02:44:37;;;;;;;;;;;;;;;12.22;58.26;99522.00;2194820;40;19966;-83
2021/05/23 02:46:10;;;;;;;;;;;;;;;12.20;58.30;99524.00;2209493;40;19942;-81
2021/05/23 02:47:42;;;;;;;;;;;;;;;12.20;58.44;99521.31;2186720;40;20247;-82
2021/05/23 02:49:14;;;;;;;;;;;;;;;12.22;58.34;99531.91;2208767;40;19949;-82
2021/05/23 02:50:45;;;;;;;;;;;;;;;12.19;58.49;99524.19;2151550;40;20078;-82
2021/05/23 03:01:23;;;;;;;;;;;;;;;12.13;59.10;99531.03;2173977;41;20088;-83
2021/05/23 03:05:02;;;;;;;;;;;;;;;12.10;59.49;99542.94;2187170;40;20343;-82
2021/05/23 03:06:52;;;;;;;;;;;;;;;12.14;59.66;99543.44;2172713;40;19950;-81
2021/05/23 03:08:27;;;;;;;;;;;;;;;12.14;59.89;99540.75;2182834;40;19954;-82
2021/05/23 03:09:58;;;;;;;;;;;;;;;12.09;60.30;99540.44;2164981;41;19943;-81
2021/05/23 03:14:08;;;;;;;;;;;;;;;11.94;61.15;99556.31;2189054;40;19938;-82
2021/05/23 03:24:08;;;;;;;;;;;;;;;11.81;62.62;99568.31;2188562;40;20045;-82
2021/05/23 03:32:11;;;;;;;;;;;;;;;11.74;63.44;99571.81;2208133;40;20258;-81
2021/05/23 03:33:43;;;;;;;;;;;;;;;11.77;63.39;99579.53;2171328;40;19996;-80
2021/05/23 03:38:13;;;;;;;;;;;;;;;11.70;63.77;99598.09;2210056;40;19934;-82
2021/05/23 03:39:44;;;;;;;;;;;;;;;11.67;64.05;99598.41;2209489;40;19950;-82
2021/05/23 03:41:15;;;;;;;;;;;;;;;11.69;63.97;99607.97;2208160;40;19945;-82
2021/05/23 03:42:47;;;;;;;;;;;;;;;11.69;64.16;99615.16;2153445;40;20371;-83
2021/05/23 03:44:19;;;;;;;;;;;;;;;11.65;64.40;99622.66;2185338;41;19947;-83
2021/05/23 03:45:50;;;;;;;;;;;;;;;11.65;64.28;99624.53;2182673;41;19954;-82
2021/05/23 03:47:22;;;;;;;;;;;;;;;11.65;64.13;99622.66;2184291;41;20367;-83
2021/05/23 03:48:53;;;;;;;;;;;;;;;11.66;64.08;99629.69;2184307;41;19939;-82
2021/05/23 03:52:51;;;;;;;;;;;;;;;11.68;63.56;99614.31;2171682;41;19951;-81
2021/05/23 04:16:34;;;;;;;;;;;;;;;11.65;62.43;99665.50;2170201;41;20352;-82
2021/05/23 04:22:09;;;;;;;;;;;;;;;11.66;62.32;99677.91;2171664;41;20599;-78
2021/05/23 04:25:44;;;;;;;;;;;;;;;11.61;62.44;99679.38;2173588;41;19951;-79
2021/05/23 04:27:15;;;;;;;;;;;;;;;11.61;62.53;99685.59;2176179;41;19931;-79
2021/05/23 04:28:46;;;;;;;;;;;;;;;11.62;62.54;99684.56;2210270;40;19957;-78
2021/05/23 04:30:19;;;;;;;;;;;;;;;11.63;62.47;99690.78;2206659;40;19934;-80
2021/05/23 04:31:50;;;;;;;;;;;;;;;11.61;62.49;99685.59;2210914;40;19945;-80
2021/05/23 04:33:23;;;;;;;;;;;;;;;11.61;62.59;99688.25;2195941;40;19938;-81
2021/05/23 04:34:53;;;;;;;;;;;;;;;11.61;62.54;99690.94;2206191;40;20210;-80
2021/05/23 04:36:24;;;;;;;;;;;;;;;11.63;62.59;99690.78;2202258;40;19953;-80
2021/05/23 04:37:57;;;;;;;;;;;;;;;11.62;62.50;99697.13;2211090;40;19937;-79
2021/05/23 04:39:28;;;;;;;;;;;;;;;11.64;62.62;99700.50;2206017;40;19938;-79
2021/05/23 04:40:59;;;;;;;;;;;;;;;11.65;62.64;99699.50;2207525;40;19934;-80
2021/05/23 04:42:30;;;;;;;;;;;;;;;11.68;62.62;99696.47;2206513;40;19958;-80
2021/05/23 04:44:02;;;;;;;;;;;;;;;11.66;62.68;99701.16;2205970;40;19942;-80
2021/05/23 04:45:33;;;;;;;;;;;;;;;11.66;62.75;99699.31;2203868;40;19946;-79
2021/05/23 04:47:06;;;;;;;;;;;;;;;11.64;63.06;99697.81;2205475;40;20223;-80
2021/05/23 04:48:41;;;;;;;;;;;;;;;11.68;63.00;99697.31;2193743;40;19946;-79
2021/05/23 04:50:12;;;;;;;;;;;;;;;11.67;63.02;99700.16;2201630;40;19942;-79
2021/05/23 04:51:44;;;;;;;;;;;;;;;11.62;63.16;99695.28;2203984;40;19941;-79
2021/05/23 04:53:15;;;;;;;;;;;;;;;11.66;63.23;99693.97;2204801;40;19950;-80
2021/05/23 04:54:46;;;;;;;;;;;;;;;11.66;63.11;99696.63;2203240;40;19942;-79
2021/05/23 04:56:17;;;;;;;;;;;;;;;11.70;63.16;99691.81;2205147;40;19949;-78
2021/05/23 04:57:51;;;;;;;;;;;;;;;11.64;63.44;99695.13;2204085;40;19949;-80
2021/05/23 04:59:24;;;;;;;;;;;;;;;11.59;63.57;99695.63;2205065;40;19946;-80
2021/05/23 05:00:55;;;;;;;;;;;;;;;11.57;63.72;99700.28;2204721;40;19954;-79
2021/05/23 05:02:26;;;;;;;;;;;;;;;11.56;63.86;99703.94;2205749;40;19950;-78
2021/05/23 05:03:58;;;;;;;;;;;;;;;11.58;63.74;99710.00;2206190;40;19950;-78
2021/05/23 05:07:28;;;;;;;;;;;;;;;11.64;63.65;99711.19;2209222;40;19938;-80
2021/05/23 05:09:00;;;;;;;;;;;;;;;11.64;63.40;99711.19;2181943;40;19950;-80
2021/05/23 05:10:34;;;;;;;;;;;;;;;11.63;63.30;99713.00;2184472;40;20012;-81
2021/05/23 05:12:06;;;;;;;;;;;;;;;11.62;63.21;99714.00;2191072;40;19945;-81
2021/05/23 05:13:37;;;;;;;;;;;;;;;11.65;63.07;99721.75;2169023;41;19959;-81
2021/05/23 05:15:09;;;;;;;;;;;;;;;11.66;62.78;99717.25;2174583;40;19939;-80
2021/05/23 05:16:42;;;;;;;;;;;;;;;11.66;62.70;99726.09;2192139;40;19997;-80
2021/05/23 05:18:14;;;;;;;;;;;;;;;11.70;62.62;99731.97;2202286;40;20092;-80
2021/05/23 05:19:47;;;;;;;;;;;;;;;11.69;62.63;99728.47;2206943;40;19945;-80
2021/05/23 05:21:21;;;;;;;;;;;;;;;11.71;62.40;99739.81;2202949;40;19948;-82
2021/05/23 05:22:54;;;;;;;;;;;;;;;11.74;62.20;99737.84;2209378;40;19938;-80
2021/05/23 05:24:25;;;;;;;;;;;;;;;11.72;62.18;99740.69;2208202;40;19934;-80
2021/05/23 05:25:58;;;;;;;;;;;;;;;11.71;62.20;99742.50;2208485;40;20551;-81
2021/05/23 05:27:29;;;;;;;;;;;;;;;11.74;62.09;99745.88;2205920;40;19941;-79
2021/05/23 05:29:01;;;;;;;;;;;;;;;11.76;61.87;99743.88;2207872;40;19993;-79
2021/05/23 05:30:33;;;;;;;;;;;;;;;11.76;61.95;99752.75;2203820;40;19945;-81
2021/05/23 05:32:12;;;;;;;;;;;;;;;11.80;61.81;99754.09;2208508;40;20005;-81
2021/05/23 05:33:42;;;;;;;;;;;;;;;11.84;61.73;99754.63;2204360;40;20310;-80
2021/05/23 05:35:14;;;;;;;;;;;;;;;11.88;61.62;99755.16;2207177;40;19992;-79
2021/05/23 05:36:46;;;;;;;;;;;;;;;11.88;61.10;99760.50;2206353;40;19956;-80
2021/05/23 05:38:17;;;;;;;;;;;;;;;11.86;60.90;99758.00;2208492;40;20011;-80
2021/05/23 05:39:48;;;;;;;;;;;;;;;11.89;61.01;99757.69;2206380;40;20263;-80
2021/05/23 05:41:20;;;;;;;;;;;;;;;11.91;60.92;99752.97;2206136;40;19942;-82
2021/05/23 05:42:51;;;;;;;;;;;;;;;11.95;60.79;99757.03;2208898;40;19949;-77
2021/05/23 05:44:22;;;;;;;;;;;;;;;12.07;60.56;99767.50;2204189;40;19982;-79
2021/05/23 05:45:53;;;;;;;;;;;;;;;12.15;60.04;99770.19;2204470;40;20317;-78
2021/05/23 05:47:26;;;;;;;;;;;;;;;12.13;59.80;99769.53;2203863;40;19945;-77
2021/05/23 05:48:57;;;;;;;;;;;;;;;12.17;59.76;99770.88;2208937;40;19944;-78
2021/05/23 05:50:29;;;;;;;;;;;;;;;12.16;59.63;99777.25;2206852;40;19936;-76
2021/05/23 05:52:00;;;;;;;;;;;;;;;12.13;59.42;99772.19;2209841;40;19934;-76
2021/05/23 05:53:31;;;;;;;;;;;;;;;12.12;59.33;99776.72;2208267;40;19938;-79
2021/05/23 05:55:03;;;;;;;;;;;;;;;12.08;59.45;99787.94;2207499;40;19938;-78
2021/05/23 05:56:34;;;;;;;;;;;;;;;12.07;59.32;99791.59;2204518;40;19953;-78
2021/05/23 05:58:05;;;;;;;;;;;;;;;12.08;59.19;99799.47;2208243;40;19945;-79
2021/05/23 05:59:36;;;;;;;;;;;;;;;12.13;58.92;99790.97;2208032;40;19981;-79
2021/05/23 06:01:08;;;;;;;;;;;;;;;12.10;58.97;99796.63;2208698;40;19933;-78
2021/05/23 06:02:39;;;;;;;;;;;;;;;12.11;59.04;99803.66;2208551;40;20037;-78
2021/05/23 06:04:10;;;;;;;;;;;;;;;12.14;58.99;99808.72;2208649;40;19989;-78
2021/05/23 06:05:42;;;;;;;;;;;;;;;12.14;58.84;99806.84;2206445;40;19993;-79
2021/05/23 06:07:13;;;;;;;;;;;;;;;12.18;58.60;99810.09;2208729;40;19946;-78
2021/05/23 06:08:45;;;;;;;;;;;;;;;12.08;58.72;99812.88;2203584;40;19937;-78
2021/05/23 06:10:17;;;;;;;;;;;;;;;12.02;59.06;99817.03;2206777;40;19937;-78
2021/05/23 06:11:48;;;;;;;;;;;;;;;11.99;59.25;99817.38;2205256;40;19982;-79
2021/05/23 06:13:19;;;;;;;;;;;;;;;12.01;59.24;99820.69;2208439;40;19953;-77
2021/05/23 06:14:50;;;;;;;;;;;;;;;12.02;59.35;99817.03;2177995;40;19951;-77
2021/05/23 06:16:20;;;;;;;;;;;;;;;12.03;59.25;99823.25;2196268;40;19945;-79
2021/05/23 06:17:51;;;;;;;;;;;;;;;12.14;59.11;99822.94;2203198;40;19949;-78
2021/05/23 06:19:23;;;;;;;;;;;;;;;12.25;58.84;99827.19;2210114;40;20040;-79
2021/05/23 06:20:58;;;;;;;;;;;;;;;12.31;58.53;99806.94;2198686;40;19945;-79
2021/05/23 06:22:29;;;;;;;;;;;;;;;12.29;58.30;99833.06;2205332;40;19945;-78
2021/05/23 06:24:00;;;;;;;;;;;;;;;12.28;58.18;99826.84;2202788;40;19945;-79
2021/05/23 06:25:31;;;;;;;;;;;;;;;12.24;58.29;99836.22;2205141;40;20302;-79
2021/05/23 06:27:03;;;;;;;;;;;;;;;12.24;58.37;99836.22;2202875;40;19946;-78
2021/05/23 06:28:35;;;;;;;;;;;;;;;12.29;58.24;99833.06;2204673;40;19946;-79
2021/05/23 06:30:07;;;;;;;;;;;;;;;12.35;58.12;99834.25;2203783;40;19941;-78
2021/05/23 06:31:38;;;;;;;;;;;;;;;12.37;57.77;99835.78;2205870;40;19953;-79
2021/05/23 06:33:09;;;;;;;;;;;;;;;12.37;57.88;99829.59;2205087;40;20315;-79
2021/05/23 06:34:41;;;;;;;;;;;;;;;12.37;58.05;99846.50;2206445;40;19950;-79
2021/05/23 06:36:13;;;;;;;;;;;;;;;12.33;57.88;99837.94;2203606;40;19938;-80
2021/05/23 06:37:45;;;;;;;;;;;;;;;12.34;57.61;99830.72;2199501;40;20289;-79
2021/05/23 06:39:17;;;;;;;;;;;;;;;12.35;57.61;99836.94;2198684;40;20025;-79
2021/05/23 06:40:48;;;;;;;;;;;;;;;12.39;57.42;99836.47;2200172;40;19945;-80
2021/05/23 06:42:20;;;;;;;;;;;;;;;12.39;57.38;99839.13;2198360;40;19938;-79
2021/05/23 06:43:51;;;;;;;;;;;;;;;12.41;57.50;99836.28;2199398;40;19944;-79
2021/05/23 06:45:22;;;;;;;;;;;;;;;12.45;57.63;99834.97;2199052;40;19938;-79
2021/05/23 06:46:54;;;;;;;;;;;;;;;12.45;57.31;99843.03;2199061;40;19938;-79
2021/05/23 06:48:27;;;;;;;;;;;;;;;12.40;57.50;99845.31;2202937;40;19946;-78
2021/05/23 06:49:58;;;;;;;;;;;;;;;12.43;57.51;99851.19;2204727;40;20458;-78
2021/05/23 06:51:29;;;;;;;;;;;;;;;12.52;57.40;99854.75;2202651;40;19979;-79
2021/05/23 06:53:02;;;;;;;;;;;;;;;12.58;57.09;99851.44;2205772;40;19953;-79
2021/05/23 06:54:33;;;;;;;;;;;;;;;12.60;57.21;99848.59;2205516;40;19949;-77
2021/05/23 06:56:05;;;;;;;;;;;;;;;12.63;56.99;99849.13;2207709;40;19957;-77
2021/05/23 06:57:36;;;;;;;;;;;;;;;12.63;57.04;99846.44;2204756;40;19942;-76
2021/05/23 06:59:07;;;;;;;;;;;;;;;12.66;56.96;99845.25;2208420;40;20305;-77
2021/05/23 07:00:38;;;;;;;;;;;;;;;12.66;57.03;99847.13;2207209;40;19941;-78
2021/05/23 07:02:09;;;;;;;;;;;;;;;12.67;56.99;99846.09;2210366;40;19940;-77
2021/05/23 07:03:41;;;;;;;;;;;;;;;12.87;56.71;99842.13;2208814;40;19930;-78
2021/05/23 07:05:12;;;;;;;;;;;;;;;13.13;55.95;99843.00;2208705;40;19945;-78
2021/05/23 07:06:45;;;;;;;;;;;;;;;13.16;55.89;99845.34;2206941;40;19949;-77
2021/05/23 07:08:18;;;;;;;;;;;;;;;13.25;55.60;99847.03;2204867;40;20258;-78
2021/05/23 07:09:49;;;;;;;;;;;;;;;13.27;55.42;99847.72;2189507;40;19954;-78
2021/05/23 07:11:20;;;;;;;;;;;;;;;13.35;55.32;99852.22;2201845;40;19941;-77
2021/05/23 07:12:51;;;;;;;;;;;;;;;13.36;54.84;99854.75;2204235;40;19942;-76
2021/05/23 07:14:21;;;;;;;;;;;;;;;13.33;55.00;99857.78;2202718;40;19941;-77
2021/05/23 07:15:53;;;;;;;;;;;;;;;13.35;55.10;99854.91;2204633;40;19965;-76
2021/05/23 07:17:24;;;;;;;;;;;;;;;13.41;54.88;99859.66;2198013;40;19975;-77
2021/05/23 07:18:55;;;;;;;;;;;;;;;13.48;54.75;99859.81;2185446;40;19945;-77
2021/05/23 07:20:27;;;;;;;;;;;;;;;13.45;54.53;99850.25;2177085;40;20361;-78
2021/05/23 07:21:59;;;;;;;;;;;;;;;13.37;54.62;99858.28;2202907;40;20106;-77
2021/05/23 07:23:33;;;;;;;;;;;;;;;13.32;54.87;99850.72;2189383;40;20427;-77
2021/05/23 07:25:07;;;;;;;;;;;;;;;13.29;54.61;99855.59;2203778;40;19961;-77
2021/05/23 07:26:39;;;;;;;;;;;;;;;13.31;54.41;99853.59;2201239;40;20681;-78
2021/05/23 07:28:10;;;;;;;;;;;;;;;13.25;54.28;99855.91;2207498;40;19946;-78
2021/05/23 07:29:43;;;;;;;;;;;;;;;13.20;54.26;99858.28;2200625;40;19945;-79
2021/05/23 07:31:14;;;;;;;;;;;;;;;13.10;54.36;99855.72;2203930;40;19949;-76
2021/05/23 07:32:45;;;;;;;;;;;;;;;13.09;54.23;99864.78;2202741;40;19937;-78
2021/05/23 07:34:16;;;;;;;;;;;;;;;13.11;54.10;99861.94;2207571;40;20451;-77
2021/05/23 07:35:47;;;;;;;;;;;;;;;13.14;54.04;99858.91;2200688;40;20028;-78
2021/05/23 07:37:19;;;;;;;;;;;;;;;13.13;54.00;99862.59;2204511;40;19964;-79
2021/05/23 07:38:50;;;;;;;;;;;;;;;13.19;54.15;99866.47;2202610;40;20027;-76
2021/05/23 07:40:21;;;;;;;;;;;;;;;13.17;54.35;99863.13;2203947;40;19984;-77
2021/05/23 07:41:53;;;;;;;;;;;;;;;13.08;54.43;99862.28;2202030;40;19948;-77
2021/05/23 07:43:24;;;;;;;;;;;;;;;13.01;54.88;99863.94;2204271;40;19941;-78
2021/05/23 07:44:55;;;;;;;;;;;;;;;13.01;55.03;99872.81;2187215;40;19947;-77
2021/05/23 07:46:26;;;;;;;;;;;;;;;13.12;54.94;99871.69;2199734;40;19941;-77
2021/05/23 07:47:57;;;;;;;;;;;;;;;13.18;54.61;99880.91;2201341;40;19941;-78
2021/05/23 07:49:28;;;;;;;;;;;;;;;13.21;54.51;99870.69;2203794;40;19938;-77
2021/05/23 07:50:59;;;;;;;;;;;;;;;13.30;54.50;99870.69;2201531;40;19949;-76
2021/05/23 07:52:31;;;;;;;;;;;;;;;13.37;54.38;99874.38;2204872;40;19938;-79
2021/05/23 07:54:03;;;;;;;;;;;;;;;13.31;54.12;99859.78;2201042;40;19952;-79
2021/05/23 07:55:35;;;;;;;;;;;;;;;13.27;54.09;99863.81;2204891;40;19944;-77
2021/05/23 07:57:13;;;;;;;;;;;;;;;13.31;54.02;99869.69;2170527;40;19959;-78
2021/05/23 07:58:44;;;;;;;;;;;;;;;13.45;53.65;99871.72;2171785;40;19944;-80
2021/05/23 08:00:16;;;;;;;;;;;;;;;13.60;53.20;99873.75;2162451;40;20317;-77
2021/05/23 08:01:47;;;;;;;;;;;;;;;13.87;52.67;99870.69;2196642;40;19954;-76
2021/05/23 08:03:18;;;;;;;;;;;;;;;14.04;52.20;99868.78;2202094;40;19938;-77
2021/05/23 08:04:48;;;;;;;;;;;;;;;14.08;51.43;99858.53;2202134;40;19938;-78
2021/05/23 08:06:20;;;;;;;;;;;;;;;14.02;51.22;99867.28;2201698;40;20519;-76
2021/05/23 08:07:53;;;;;;;;;;;;;;;13.86;51.29;99876.22;2203073;40;19961;-79
2021/05/23 08:09:24;;;;;;;;;;;;;;;13.78;50.89;99873.56;2201355;40;19954;-79
2021/05/23 08:10:55;;;;;;;;;;;;;;;13.78;51.22;99871.72;2202854;40;19936;-77
2021/05/23 08:12:26;;;;;;;;;;;;;;;13.84;50.96;99864.81;2201958;40;19944;-77
2021/05/23 08:13:57;;;;;;;;;;;;;;;14.06;50.63;99865.97;2203157;40;19941;-76
2021/05/23 08:15:27;;;;;;;;;;;;;;;14.13;50.51;99860.72;2201929;40;20309;-78
2021/05/23 08:16:59;;;;;;;;;;;;;;;14.26;50.76;99869.06;2204710;40;20020;-77
2021/05/23 08:18:30;;;;;;;;;;;;;;;14.44;50.59;99860.78;2200412;40;19997;-77
2021/05/23 08:20:01;;;;;;;;;;;;;;;14.48;50.32;99866.66;2201456;40;19976;-77
2021/05/23 08:21:33;;;;;;;;;;;;;;;14.41;49.73;99861.13;2200836;40;19942;-77
2021/05/23 08:23:05;;;;;;;;;;;;;;;14.27;49.97;99869.91;2202409;40;20039;-77
2021/05/23 08:24:36;;;;;;;;;;;;;;;14.30;49.83;99869.56;2201699;40;19997;-78
2021/05/23 08:26:07;;;;;;;;;;;;;;;14.35;49.99;99872.59;2204024;40;20285;-78
2021/05/23 08:27:38;;;;;;;;;;;;;;;14.39;50.03;99873.91;2202322;40;19941;-79
2021/05/23 08:29:09;;;;;;;;;;;;;;;14.33;50.16;99879.97;2203145;40;19960;-78
2021/05/23 08:30:43;;;;;;;;;;;;;;;14.32;50.30;99872.94;2202088;40;20386;-77
2021/05/23 08:32:16;;;;;;;;;;;;;;;14.32;50.28;99873.75;2204295;40;19941;-78
2021/05/23 08:33:49;;;;;;;;;;;;;;;14.40;48.91;99875.59;2202639;40;20101;-78
2021/05/23 08:35:22;;;;;;;;;;;;;;;14.38;48.98;99888.34;2202545;40;19977;-78
2021/05/23 08:36:54;;;;;;;;;;;;;;;14.41;48.96;99876.41;2203704;40;19945;-78
2021/05/23 08:38:26;;;;;;;;;;;;;;;14.47;49.13;99886.50;2202411;40;19945;-79
2021/05/23 08:39:57;;;;;;;;;;;;;;;14.48;49.38;99883.63;2203822;40;19948;-79
2021/05/23 08:41:28;;;;;;;;;;;;;;;14.56;49.59;99881.91;2203137;40;19938;-80
2021/05/23 08:43:01;;;;;;;;;;;;;;;14.53;49.82;99883.09;2206091;40;19934;-79
2021/05/23 08:44:33;;;;;;;;;;;;;;;14.52;49.99;99889.47;2212655;40;20035;-79
2021/05/23 08:46:04;;;;;;;;;;;;;;;14.89;48.98;99888.00;2210312;40;20334;-79
2021/05/23 08:47:39;;;;;;;;;;;;;;;15.11;48.55;99878.25;2209164;40;20030;-79
2021/05/23 08:49:12;;;;;;;;;;;;;;;15.41;47.20;99869.47;2209397;40;19976;-78
2021/05/23 08:50:43;;;;;;;;;;;;;;;15.51;46.01;99869.22;2214692;40;19941;-79
2021/05/23 08:52:15;;;;;;;;;;;;;;;15.83;46.10;99869.94;2203649;40;20323;-78
2021/05/23 08:53:47;;;;;;;;;;;;;;;16.11;45.11;99867.47;2201982;40;19942;-79
2021/05/23 08:55:17;;;;;;;;;;;;;;;16.16;45.14;99858.84;2203919;40;20389;-78
2021/05/23 08:56:49;;;;;;;;;;;;;;;15.85;44.97;99876.03;2202671;40;19954;-79
2021/05/23 08:58:20;;;;;;;;;;;;;;;15.49;45.99;99872.09;2204282;40;19949;-80
2021/05/23 08:59:51;;;;;;;;;;;;;;;15.35;46.44;99875.59;2202455;40;20522;-79
2021/05/23 09:01:24;;;;;;;;;;;;;;;15.06;46.25;99880.66;2216016;40;19951;-81
2021/05/23 09:02:56;;;;;;;;;;;;;;;14.95;46.77;99883.75;2214464;40;19937;-80
2021/05/23 09:04:29;;;;;;;;;;;;;;;14.87;47.36;99894.56;2215403;40;19952;-78
2021/05/23 09:06:00;;;;;;;;;;;;;;;14.88;47.50;99898.94;2202664;40;19944;-78
2021/05/23 09:07:31;;;;;;;;;;;;;;;14.86;47.64;99898.25;2203566;40;20040;-78
2021/05/23 09:09:05;;;;;;;;;;;;;;;14.80;47.73;99892.59;2203952;40;20484;-78
2021/05/23 09:10:37;;;;;;;;;;;;;;;14.85;47.19;99900.13;2210260;40;19941;-78
2021/05/23 09:12:08;;;;;;;;;;;;;;;14.86;47.17;99900.97;2211529;40;19934;-78
2021/05/23 09:13:40;;;;;;;;;;;;;;;14.81;47.35;99899.66;2216205;40;19953;-78
2021/05/23 09:15:13;;;;;;;;;;;;;;;14.81;47.47;99905.03;2214639;40;19937;-81
2021/05/23 09:16:51;;;;;;;;;;;;;;;14.78;47.59;99905.38;2216113;40;20371;-80
2021/05/23 09:18:22;;;;;;;;;;;;;;;14.73;47.94;99913.16;2211881;40;19933;-80
2021/05/23 09:19:54;;;;;;;;;;;;;;;14.82;48.12;99904.03;2210738;40;19937;-78
2021/05/23 09:21:27;;;;;;;;;;;;;;;14.93;47.81;99907.31;2210793;40;19937;-77
2021/05/23 09:23:01;;;;;;;;;;;;;;;14.97;47.88;99905.94;2210930;40;19949;-79
2021/05/23 09:24:47;;;;;;;;;;;;;;;15.00;47.83;99897.53;2207702;40;19949;-78
2021/05/23 09:26:20;;;;;;;;;;;;;;;15.12;47.53;99901.47;2208670;40;19950;-79
2021/05/23 09:27:51;;;;;;;;;;;;;;;15.19;47.46;99907.00;2208699;40;19963;-79
2021/05/23 09:29:22;;;;;;;;;;;;;;;15.08;47.51;99910.94;2209969;40;19937;-78
2021/05/23 09:30:53;;;;;;;;;;;;;;;15.01;47.50;99907.28;2211077;40;19934;-78
2021/05/23 09:32:26;;;;;;;;;;;;;;;14.97;47.89;99914.03;2207344;40;19937;-80
2021/05/23 09:33:59;;;;;;;;;;;;;;;14.87;47.98;99911.56;2214436;40;19937;-80
2021/05/23 09:35:30;;;;;;;;;;;;;;;14.81;48.08;99912.25;2211994;40;19942;-78
2021/05/23 09:37:11;;;;;;;;;;;;;;;14.86;48.21;99917.97;2218053;40;19948;-79
2021/05/23 09:38:55;;;;;;;;;;;;;;;14.85;48.50;99910.03;2214794;40;19948;-76
2021/05/23 09:40:28;;;;;;;;;;;;;;;14.81;48.90;99912.25;2215210;40;19934;-80
2021/05/23 09:42:03;;;;;;;;;;;;;;;15.05;48.76;99900.50;2215131;40;19937;-78
2021/05/23 09:43:34;;;;;;;;;;;;;;;15.58;47.67;99900.66;2210310;40;19933;-79
2021/05/23 09:45:05;;;;;;;;;;;;;;;15.80;47.04;99900.81;2203412;40;20039;-78
2021/05/23 09:46:37;;;;;;;;;;;;;;;15.89;46.04;99901.56;2203745;40;20245;-77
2021/05/23 09:48:15;;;;;;;;;;;;;;;16.00;46.11;99903.00;2203382;40;20317;-76
2021/05/23 09:49:53;;;;;;;;;;;;;;;15.89;45.64;99902.44;2203954;40;19944;-78
2021/05/23 09:51:24;;;;;;;;;;;;;;;15.84;45.75;99906.69;2194743;40;19950;-78
2021/05/23 09:52:55;;;;;;;;;;;;;;;15.64;45.94;99909.88;2199461;40;19945;-79
2021/05/23 09:54:28;;;;;;;;;;;;;;;15.46;46.20;99909.34;2201583;40;19942;-79
2021/05/23 09:56:01;;;;;;;;;;;;;;;15.34;46.25;99915.13;2203830;40;19950;-78
2021/05/23 09:57:32;;;;;;;;;;;;;;;15.17;46.81;99913.56;2200406;40;19960;-78
2021/05/23 09:59:04;;;;;;;;;;;;;;;15.13;47.14;99916.63;2203157;40;19945;-78
2021/05/23 10:00:39;;;;;;;;;;;;;;;15.09;47.23;99919.84;2202239;40;20030;-78
2021/05/23 10:02:11;;;;;;;;;;;;;;;15.09;47.41;99923.38;2203854;40;19938;-78
2021/05/23 10:03:44;;;;;;;;;;;;;;;15.12;47.71;99922.19;2202298;40;19981;-78
2021/05/23 10:05:15;;;;;;;;;;;;;;;15.05;47.82;99926.59;2202641;40;19942;-78
2021/05/23 10:06:56;;;;;;;;;;;;;;;15.03;48.03;99932.16;2203147;40;19946;-78
2021/05/23 10:08:28;;;;;;;;;;;;;;;15.07;48.43;99929.94;2201705;40;19948;-78
2021/05/23 10:10:00;;;;;;;;;;;;;;;15.07;47.77;99920.03;2203143;40;20427;-77
2021/05/23 10:11:32;;;;;;;;;;;;;;;15.08;47.77;99927.09;2202851;40;19944;-77
2021/05/23 10:13:03;;;;;;;;;;;;;;;15.04;47.77;99931.13;2203934;40;19941;-78
2021/05/23 10:14:34;;;;;;;;;;;;;;;15.34;47.38;99923.22;2202641;40;19997;-78
2021/05/23 10:16:06;;;;;;;;;;;;;;;15.63;46.32;99921.66;2204580;40;19978;-78
2021/05/23 10:17:37;;;;;;;;;;;;;;;15.78;45.94;99912.75;2202398;40;19985;-79
2021/05/23 10:19:08;;;;;;;;;;;;;;;15.81;45.50;99910.56;2203782;40;20043;-79
2021/05/23 10:20:40;;;;;;;;;;;;;;;15.80;45.70;99919.66;2201519;40;19966;-79
2021/05/23 10:22:11;;;;;;;;;;;;;;;15.79;46.10;99915.28;2205386;40;19933;-78
2021/05/23 10:23:47;;;;;;;;;;;;;;;15.90;46.02;99924.81;2205441;40;19942;-79
2021/05/23 10:25:18;;;;;;;;;;;;;;;16.08;45.23;99921.81;2205045;40;19938;-78
2021/05/23 10:26:54;;;;;;;;;;;;;;;16.42;44.62;99928.50;2202388;40;20254;-80
2021/05/23 10:28:25;;;;;;;;;;;;;;;16.40;45.03;99927.03;2204222;40;19949;-78
2021/05/23 10:29:57;;;;;;;;;;;;;;;16.27;45.51;99925.78;2202553;40;19942;-80
2021/05/23 10:31:29;;;;;;;;;;;;;;;16.15;45.79;99930.81;2203548;40;19997;-79
2021/05/23 10:33:09;;;;;;;;;;;;;;;16.11;45.54;99928.66;2203477;40;19938;-78
2021/05/23 10:34:42;;;;;;;;;;;;;;;15.89;45.86;99925.84;2200668;40;19948;-79
2021/05/23 10:36:13;;;;;;;;;;;;;;;15.77;46.28;99925.41;2205145;40;20306;-78
2021/05/23 10:37:45;;;;;;;;;;;;;;;15.71;46.44;99932.38;2206044;40;19970;-79
2021/05/23 10:39:16;;;;;;;;;;;;;;;15.59;46.49;99936.50;2205276;40;19941;-79
2021/05/23 10:40:51;;;;;;;;;;;;;;;15.41;46.56;99934.13;2205327;40;19964;-79
2021/05/23 10:42:26;;;;;;;;;;;;;;;15.29;46.71;99933.69;2203638;40;19929;-79
2021/05/23 10:43:57;;;;;;;;;;;;;;;15.19;46.91;99944.69;2204152;40;19958;-78
2021/05/23 10:45:30;;;;;;;;;;;;;;;15.11;46.87;99940.19;2203675;40;19945;-80
2021/05/23 10:47:08;;;;;;;;;;;;;;;15.19;46.90;99938.47;2206272;40;19938;-79
2021/05/23 10:48:40;;;;;;;;;;;;;;;15.45;46.47;99932.72;2202450;40;19956;-78
2021/05/23 10:50:12;;;;;;;;;;;;;;;15.51;46.02;99936.56;2205951;40;19934;-79
2021/05/23 10:51:51;;;;;;;;;;;;;;;15.43;46.22;99930.22;2205149;40;20343;-80
2021/05/23 10:53:31;;;;;;;;;;;;;;;15.44;46.41;99937.28;2206717;40;19945;-81
2021/05/23 10:55:04;;;;;;;;;;;;;;;15.42;47.01;99947.41;2206771;40;19942;-81
2021/05/23 10:56:36;;;;;;;;;;;;;;;15.42;47.10;99939.31;2206397;40;19950;-80
2021/05/23 10:58:08;;;;;;;;;;;;;;;15.36;47.55;99950.81;2210006;40;19940;-81
2021/05/23 10:59:45;;;;;;;;;;;;;;;15.29;47.31;99955.25;2175239;40;21635;-82
2021/05/23 11:01:18;;;;;;;;;;;;;;;15.28;47.18;99953.56;2203714;40;19948;-81
2021/05/23 11:05:11;;;;;;;;;;;;;;;15.43;46.56;99950.94;2209377;40;19941;-78
2021/05/23 11:06:43;;;;;;;;;;;;;;;15.60;46.54;99946.25;2205159;40;20457;-77
2021/05/23 11:08:15;;;;;;;;;;;;;;;15.81;46.25;99944.75;2205370;40;19934;-78
2021/05/23 11:09:45;;;;;;;;;;;;;;;15.98;46.23;99946.31;2204084;40;19997;-80
2021/05/23 11:11:20;;;;;;;;;;;;;;;15.89;46.42;99945.56;2205385;40;19946;-78
2021/05/23 11:12:52;;;;;;;;;;;;;;;15.91;45.94;99937.28;2205084;40;19942;-78
2021/05/23 11:14:25;;;;;;;;;;;;;;;15.99;45.90;99939.91;2205077;40;19950;-79
2021/05/23 11:16:08;;;;;;;;;;;;;;;16.13;45.71;99938.25;2202595;40;19964;-78
2021/05/23 11:17:39;;;;;;;;;;;;;;;16.26;44.50;99936.78;2171969;40;23754;-81
2021/05/23 11:19:12;;;;;;;;;;;;;;;16.50;44.20;99930.28;2200696;40;19992;-84
2021/05/23 11:20:54;;;;;;;;;;;;;;;16.61;43.52;99929.81;2202540;40;19949;-79
2021/05/23 11:22:28;;;;;;;;;;;;;;;16.50;43.07;99920.31;2211430;40;19941;-79